createdAt,value
2019-03-19T00:00:12.546Z,1016.59
2019-03-19T00:01:12.524Z,1016.63
2019-03-19T00:02:12.553Z,1016.64
2019-03-19T00:03:12.493Z,1016.64
2019-03-19T00:04:12.541Z,1016.60
2019-03-19T00:05:12.485Z,1016.64
2019-03-19T00:06:12.469Z,1016.52
2019-03-19T00:07:12.466Z,1016.53
2019-03-19T00:08:12.450Z,1016.55
2019-03-19T00:09:12.440Z,1016.62
2019-03-19T00:10:12.454Z,1016.55
2019-03-19T00:11:12.427Z,1016.64
2019-03-19T00:12:12.417Z,1016.60
2019-03-19T00:13:12.401Z,1016.60
2019-03-19T00:14:12.383Z,1016.65
2019-03-19T00:15:12.373Z,1016.67
2019-03-19T00:16:12.390Z,1016.65
2019-03-19T00:17:12.356Z,1016.67
2019-03-19T00:18:12.360Z,1016.75
2019-03-19T00:19:12.387Z,1016.64
2019-03-19T00:20:12.351Z,1016.79
2019-03-19T00:21:12.312Z,1016.75
2019-03-19T00:22:12.330Z,1016.83
2019-03-19T00:23:12.292Z,1016.75
2019-03-19T00:24:12.283Z,1016.91
2019-03-19T00:25:12.284Z,1016.73
2019-03-19T00:26:12.256Z,1016.85
2019-03-19T00:27:12.252Z,1016.87
2019-03-19T00:28:12.298Z,1016.88
2019-03-19T00:29:12.231Z,1016.84
2019-03-19T00:30:12.219Z,1016.85
2019-03-19T00:31:12.218Z,1016.85
2019-03-19T00:32:12.195Z,1016.89
2019-03-19T00:33:12.194Z,1016.87
2019-03-19T00:34:12.194Z,1016.85
2019-03-19T00:35:12.166Z,1016.84
2019-03-19T00:36:12.160Z,1016.81
2019-03-19T00:37:12.152Z,1016.88
2019-03-19T00:38:12.132Z,1016.86
2019-03-19T00:39:12.159Z,1016.85
2019-03-19T00:40:12.117Z,1016.88
2019-03-19T00:41:12.104Z,1016.88
2019-03-19T00:42:12.110Z,1016.89
2019-03-19T00:43:12.117Z,1016.88
2019-03-19T00:44:12.072Z,1016.82
2019-03-19T00:45:12.090Z,1016.85
2019-03-19T00:46:12.056Z,1016.95
2019-03-19T00:47:12.054Z,1016.95
2019-03-19T00:48:12.048Z,1016.95
2019-03-19T00:49:12.073Z,1016.97
2019-03-19T00:50:12.012Z,1016.98
2019-03-19T00:51:12.018Z,1016.94
2019-03-19T00:52:12.035Z,1016.99
2019-03-19T00:53:11.975Z,1017.01
2019-03-19T00:54:11.978Z,1017.04
2019-03-19T00:55:11.987Z,1017.07
2019-03-19T00:56:11.977Z,1017.08
2019-03-19T00:57:11.934Z,1017.05
2019-03-19T00:58:11.926Z,1017.09
2019-03-19T00:59:11.931Z,1017.09
2019-03-19T01:00:11.918Z,1017.09
2019-03-19T01:01:11.924Z,1017.14
2019-03-19T01:02:11.929Z,1017.15
2019-03-19T01:03:11.870Z,1017.13
2019-03-19T01:04:11.871Z,1017.10
2019-03-19T01:05:11.855Z,1017.19
2019-03-19T01:06:11.859Z,1017.10
2019-03-19T01:07:11.860Z,1017.26
2019-03-19T01:08:11.849Z,1017.15
2019-03-19T01:09:11.811Z,1017.18
2019-03-19T01:10:11.815Z,1017.13
2019-03-19T01:11:11.793Z,1017.08
2019-03-19T01:12:11.794Z,1017.06
2019-03-19T01:13:11.800Z,1017.17
2019-03-19T01:14:11.757Z,1017.03
2019-03-19T01:15:11.756Z,1017.04
2019-03-19T01:16:11.738Z,1017.04
2019-03-19T01:17:11.731Z,1017.03
2019-03-19T01:18:11.723Z,1017.15
2019-03-19T01:19:11.732Z,1017.08
2019-03-19T01:20:11.702Z,1017.09
2019-03-19T01:21:11.685Z,1017.10
2019-03-19T01:22:11.683Z,1017.16
2019-03-19T01:23:11.673Z,1017.13
2019-03-19T01:24:11.696Z,1017.15
2019-03-19T01:25:11.659Z,1017.18
2019-03-19T01:26:11.644Z,1017.20
2019-03-19T01:27:11.627Z,1017.23
2019-03-19T01:28:11.630Z,1017.19
2019-03-19T01:29:11.611Z,1017.21
2019-03-19T01:30:11.614Z,1017.24
2019-03-19T01:31:11.586Z,1017.27
2019-03-19T01:32:11.575Z,1017.29
2019-03-19T01:33:11.568Z,1017.28
2019-03-19T01:34:11.579Z,1017.26
2019-03-19T01:35:11.547Z,1017.31
2019-03-19T01:36:11.564Z,1017.29
2019-03-19T01:37:11.565Z,1017.32
2019-03-19T01:38:11.508Z,1017.29
2019-03-19T01:39:11.492Z,1017.25
2019-03-19T01:40:11.497Z,1017.23
2019-03-19T01:41:11.477Z,1017.20
2019-03-19T01:42:11.499Z,1017.22
2019-03-19T01:43:11.458Z,1017.23
2019-03-19T01:44:11.447Z,1017.31
2019-03-19T01:45:11.439Z,1017.21
2019-03-19T01:46:11.427Z,1017.26
2019-03-19T01:47:11.431Z,1017.22
2019-03-19T01:48:11.424Z,1017.23
2019-03-19T01:49:11.395Z,1017.26
2019-03-19T01:50:11.383Z,1017.23
2019-03-19T01:51:11.370Z,1017.22
2019-03-19T01:52:11.365Z,1017.22
2019-03-19T01:53:11.368Z,1017.29
2019-03-19T01:54:11.334Z,1017.26
2019-03-19T01:55:11.338Z,1017.28
2019-03-19T01:56:11.324Z,1017.29
2019-03-19T01:57:11.305Z,1017.29
2019-03-19T01:58:11.306Z,1017.34
2019-03-19T01:59:11.310Z,1017.31
2019-03-19T02:00:11.272Z,1017.34
2019-03-19T02:01:11.277Z,1017.33
2019-03-19T02:02:11.263Z,1017.37
2019-03-19T02:03:11.246Z,1017.36
2019-03-19T02:04:11.298Z,1017.35
2019-03-19T02:05:11.274Z,1017.38
2019-03-19T02:06:11.216Z,1017.40
2019-03-19T02:07:11.193Z,1017.41
2019-03-19T02:08:11.208Z,1017.37
2019-03-19T02:09:11.181Z,1017.43
2019-03-19T02:10:11.197Z,1017.41
2019-03-19T02:11:11.164Z,1017.41
2019-03-19T02:12:11.141Z,1017.42
2019-03-19T02:13:11.131Z,1017.44
2019-03-19T02:14:11.130Z,1017.45
2019-03-19T02:15:11.140Z,1017.46
2019-03-19T02:16:11.114Z,1017.49
2019-03-19T02:17:12.700Z,1017.55
2019-03-19T02:18:11.092Z,1017.63
2019-03-19T02:19:11.075Z,1017.61
2019-03-19T02:20:11.064Z,1017.62
2019-03-19T02:21:11.082Z,1017.60
2019-03-19T02:22:11.048Z,1017.61
2019-03-19T02:23:11.127Z,1017.67
2019-03-19T02:24:11.023Z,1017.68
2019-03-19T02:25:11.015Z,1017.67
2019-03-19T02:26:16.520Z,1017.71
2019-03-19T02:27:12.017Z,1017.70
2019-03-19T02:28:11.006Z,1017.72
2019-03-19T02:29:11.097Z,1017.76
2019-03-19T02:30:10.954Z,1017.73
2019-03-19T02:31:10.949Z,1017.70
2019-03-19T02:32:10.939Z,1017.76
2019-03-19T02:33:10.941Z,1017.71
2019-03-19T02:34:10.920Z,1017.73
2019-03-19T02:35:10.898Z,1017.75
2019-03-19T02:36:10.897Z,1017.72
2019-03-19T02:37:10.880Z,1017.75
2019-03-19T02:38:10.894Z,1017.73
2019-03-19T02:39:10.861Z,1017.77
2019-03-19T02:40:10.869Z,1017.65
2019-03-19T02:41:10.847Z,1017.72
2019-03-19T02:42:10.838Z,1017.74
2019-03-19T02:43:10.820Z,1017.76
2019-03-19T02:44:10.824Z,1017.82
2019-03-19T02:45:10.799Z,1017.78
2019-03-19T02:46:10.793Z,1017.75
2019-03-19T02:47:10.777Z,1017.82
2019-03-19T02:48:10.763Z,1017.83
2019-03-19T02:49:10.752Z,1017.79
2019-03-19T02:50:10.770Z,1017.89
2019-03-19T02:51:10.740Z,1017.88
2019-03-19T02:52:10.727Z,1017.88
2019-03-19T02:53:10.716Z,1017.87
2019-03-19T02:54:10.705Z,1017.82
2019-03-19T02:55:10.695Z,1017.83
2019-03-19T02:56:10.706Z,1017.84
2019-03-19T02:57:10.672Z,1017.86
2019-03-19T02:58:10.660Z,1017.91
2019-03-19T02:59:10.646Z,1017.89
2019-03-19T03:00:10.650Z,1017.91
2019-03-19T03:01:10.654Z,1017.94
2019-03-19T03:02:10.612Z,1017.94
2019-03-19T03:03:10.609Z,1017.95
2019-03-19T03:04:10.627Z,1017.98
2019-03-19T03:05:10.588Z,1018.05
2019-03-19T03:06:10.573Z,1018.10
2019-03-19T03:07:10.651Z,1017.99
2019-03-19T03:08:10.555Z,1018.12
2019-03-19T03:09:10.551Z,1018.02
2019-03-19T03:10:10.539Z,1018.06
2019-03-19T03:11:10.549Z,1018.04
2019-03-19T03:12:10.516Z,1017.97
2019-03-19T03:13:10.531Z,1018.00
2019-03-19T03:14:10.486Z,1018.09
2019-03-19T03:15:10.489Z,1018.08
2019-03-19T03:16:10.490Z,1018.06
2019-03-19T03:17:10.465Z,1018.08
2019-03-19T03:18:10.454Z,1018.07
2019-03-19T03:19:10.455Z,1018.10
2019-03-19T03:20:10.433Z,1018.10
2019-03-19T03:21:10.426Z,1018.18
2019-03-19T03:22:10.538Z,1018.11
2019-03-19T03:23:10.406Z,1018.16
2019-03-19T03:24:10.445Z,1018.17
2019-03-19T03:25:10.376Z,1018.20
2019-03-19T03:26:10.365Z,1018.26
2019-03-19T03:27:10.373Z,1018.28
2019-03-19T03:28:10.402Z,1018.28
2019-03-19T03:29:10.334Z,1018.28
2019-03-19T03:30:10.355Z,1018.32
2019-03-19T03:31:10.315Z,1018.30
2019-03-19T03:32:10.306Z,1018.26
2019-03-19T03:33:10.304Z,1018.28
2019-03-19T03:34:10.300Z,1018.32
2019-03-19T03:35:10.323Z,1018.38
2019-03-19T03:36:10.281Z,1018.37
2019-03-19T03:37:10.247Z,1018.40
2019-03-19T03:38:10.242Z,1018.41
2019-03-19T03:39:10.234Z,1018.32
2019-03-19T03:40:10.216Z,1018.40
2019-03-19T03:41:10.235Z,1018.40
2019-03-19T03:42:10.260Z,1018.43
2019-03-19T03:43:10.183Z,1018.43
2019-03-19T03:44:10.193Z,1018.45
2019-03-19T03:45:10.169Z,1018.50
2019-03-19T03:46:10.151Z,1018.43
2019-03-19T03:47:10.195Z,1018.50
2019-03-19T03:48:10.128Z,1018.56
2019-03-19T03:49:10.132Z,1018.49
2019-03-19T03:50:10.109Z,1018.50
2019-03-19T03:51:10.104Z,1018.53
2019-03-19T03:52:10.094Z,1018.54
2019-03-19T03:53:10.094Z,1018.55
2019-03-19T03:54:10.069Z,1018.59
2019-03-19T03:55:10.051Z,1018.54
2019-03-19T03:56:10.050Z,1018.54
2019-03-19T03:57:10.063Z,1018.44
2019-03-19T03:58:10.032Z,1018.52
2019-03-19T03:59:10.014Z,1018.56
2019-03-19T04:00:10.016Z,1018.44
2019-03-19T04:01:09.997Z,1018.46
2019-03-19T04:02:09.997Z,1018.49
2019-03-19T04:03:10.004Z,1018.50
2019-03-19T04:04:09.973Z,1018.42
2019-03-19T04:05:09.969Z,1018.50
2019-03-19T04:06:09.947Z,1018.49
2019-03-19T04:07:09.940Z,1018.54
2019-03-19T04:08:09.941Z,1018.52
2019-03-19T04:09:09.932Z,1018.50
2019-03-19T04:10:09.901Z,1018.53
2019-03-19T04:11:09.893Z,1018.60
2019-03-19T04:12:09.888Z,1018.57
2019-03-19T04:13:09.905Z,1018.60
2019-03-19T04:14:09.867Z,1018.59
2019-03-19T04:15:09.857Z,1018.74
2019-03-19T04:16:09.834Z,1018.65
2019-03-19T04:17:09.828Z,1018.71
2019-03-19T04:18:10.110Z,1018.73
2019-03-19T04:19:09.798Z,1018.65
2019-03-19T04:20:09.822Z,1018.73
2019-03-19T04:21:09.831Z,1018.70
2019-03-19T04:22:09.775Z,1018.67
2019-03-19T04:23:09.787Z,1018.71
2019-03-19T04:24:09.753Z,1018.75
2019-03-19T04:25:09.755Z,1018.73
2019-03-19T04:26:09.733Z,1018.75
2019-03-19T04:27:16.106Z,1018.80
2019-03-19T04:28:10.728Z,1018.71
2019-03-19T04:29:09.700Z,1018.75
2019-03-19T04:30:09.699Z,1018.80
2019-03-19T04:31:09.682Z,1018.79
2019-03-19T04:32:09.697Z,1018.84
2019-03-19T04:33:09.655Z,1018.79
2019-03-19T04:34:09.690Z,1018.73
2019-03-19T04:35:09.648Z,1018.74
2019-03-19T04:36:09.625Z,1018.81
2019-03-19T04:37:09.614Z,1018.82
2019-03-19T04:38:09.629Z,1018.88
2019-03-19T04:39:09.621Z,1018.84
2019-03-19T04:40:09.605Z,1018.85
2019-03-19T04:41:09.576Z,1018.81
2019-03-19T04:42:09.571Z,1018.85
2019-03-19T04:43:09.559Z,1018.86
2019-03-19T04:44:09.560Z,1018.90
2019-03-19T04:45:09.531Z,1018.97
2019-03-19T04:46:09.544Z,1018.92
2019-03-19T04:47:09.580Z,1018.93
2019-03-19T04:48:09.517Z,1018.94
2019-03-19T04:49:09.496Z,1018.88
2019-03-19T04:50:09.497Z,1018.89
2019-03-19T04:51:09.471Z,1018.87
2019-03-19T04:52:09.458Z,1018.92
2019-03-19T04:53:09.448Z,1018.88
2019-03-19T04:54:09.471Z,1018.95
2019-03-19T04:55:09.430Z,1018.99
2019-03-19T04:56:09.439Z,1018.97
2019-03-19T04:57:09.408Z,1018.98
2019-03-19T04:58:09.394Z,1018.98
2019-03-19T04:59:09.378Z,1019.03
2019-03-19T05:00:09.386Z,1019.06
2019-03-19T05:01:09.392Z,1019.06
2019-03-19T05:02:09.362Z,1019.07
2019-03-19T05:03:09.348Z,1019.09
2019-03-19T05:04:09.326Z,1019.08
2019-03-19T05:05:09.327Z,1019.14
2019-03-19T05:06:09.331Z,1019.12
2019-03-19T05:07:09.340Z,1019.19
2019-03-19T05:08:09.303Z,1019.20
2019-03-19T05:09:09.308Z,1019.25
2019-03-19T05:10:09.277Z,1019.25
2019-03-19T05:11:09.274Z,1019.21
2019-03-19T05:12:09.257Z,1019.20
2019-03-19T05:13:09.263Z,1019.31
2019-03-19T05:14:09.230Z,1019.33
2019-03-19T05:15:09.247Z,1019.28
2019-03-19T05:16:09.207Z,1019.32
2019-03-19T05:17:09.200Z,1019.34
2019-03-19T05:18:09.207Z,1019.32
2019-03-19T05:19:09.172Z,1019.32
2019-03-19T05:20:09.175Z,1019.35
2019-03-19T05:21:09.146Z,1019.38
2019-03-19T05:22:09.139Z,1019.40
2019-03-19T05:23:09.130Z,1019.35
2019-03-19T05:24:09.150Z,1019.38
2019-03-19T05:25:09.143Z,1019.39
2019-03-19T05:26:09.102Z,1019.48
2019-03-19T05:27:09.161Z,1019.48
2019-03-19T05:28:09.079Z,1019.74
2019-03-19T05:29:09.066Z,1019.82
2019-03-19T05:30:09.076Z,1019.77
2019-03-19T05:31:09.052Z,1019.76
2019-03-19T05:32:09.034Z,1019.84
2019-03-19T05:33:09.024Z,1019.82
2019-03-19T05:34:09.031Z,1019.74
2019-03-19T05:35:09.029Z,1019.74
2019-03-19T05:36:08.991Z,1019.55
2019-03-19T05:37:08.979Z,1019.60
2019-03-19T05:38:08.968Z,1019.58
2019-03-19T05:39:08.958Z,1019.58
2019-03-19T05:40:08.968Z,1019.69
2019-03-19T05:41:08.968Z,1019.68
2019-03-19T05:42:08.926Z,1019.75
2019-03-19T05:43:08.921Z,1019.77
2019-03-19T05:44:08.907Z,1019.79
2019-03-19T05:45:08.904Z,1019.87
2019-03-19T05:46:08.884Z,1019.83
2019-03-19T05:47:08.903Z,1019.83
2019-03-19T05:48:08.866Z,1019.85
2019-03-19T05:49:08.866Z,1019.83
2019-03-19T05:50:08.849Z,1019.85
2019-03-19T05:51:08.847Z,1019.88
2019-03-19T05:52:08.851Z,1019.81
2019-03-19T05:53:08.839Z,1019.88
2019-03-19T05:54:08.811Z,1019.83
2019-03-19T05:55:08.802Z,1019.77
2019-03-19T05:56:08.809Z,1019.80
2019-03-19T05:57:08.774Z,1019.80
2019-03-19T05:58:08.797Z,1019.72
2019-03-19T05:59:08.769Z,1019.80
2019-03-19T06:00:08.753Z,1019.76
2019-03-19T06:01:08.754Z,1019.77
2019-03-19T06:02:08.725Z,1019.76
2019-03-19T06:03:08.712Z,1019.72
2019-03-19T06:04:08.742Z,1019.76
2019-03-19T06:05:08.687Z,1019.84
2019-03-19T06:06:08.685Z,1019.88
2019-03-19T06:07:08.673Z,1019.92
2019-03-19T06:08:08.655Z,1019.93
2019-03-19T06:09:08.651Z,1019.98
2019-03-19T06:10:08.677Z,1019.95
2019-03-19T06:11:08.630Z,1019.96
2019-03-19T06:12:08.625Z,1020.00
2019-03-19T06:13:08.626Z,1019.97
2019-03-19T06:14:08.601Z,1019.92
2019-03-19T06:15:08.645Z,1019.98
2019-03-19T06:16:09.812Z,1020.03
2019-03-19T06:17:08.572Z,1020.02
2019-03-19T06:18:08.562Z,1020.07
2019-03-19T06:19:08.571Z,1020.08
2019-03-19T06:20:08.543Z,1020.16
2019-03-19T06:21:08.580Z,1020.20
2019-03-19T06:22:08.509Z,1020.19
2019-03-19T06:23:08.504Z,1020.18
2019-03-19T06:24:08.494Z,1020.23
2019-03-19T06:25:08.481Z,1020.25
2019-03-19T06:26:08.507Z,1020.26
2019-03-19T06:27:08.543Z,1020.26
2019-03-19T06:28:08.448Z,1020.31
2019-03-19T06:29:08.452Z,1020.32
2019-03-19T06:30:08.458Z,1020.30
2019-03-19T06:31:08.433Z,1020.32
2019-03-19T06:32:08.461Z,1020.32
2019-03-19T06:33:08.395Z,1020.29
2019-03-19T06:34:08.393Z,1020.32
2019-03-19T06:35:08.404Z,1020.34
2019-03-19T06:36:08.372Z,1020.32
2019-03-19T06:37:08.370Z,1020.29
2019-03-19T06:38:08.377Z,1020.33
2019-03-19T06:39:08.428Z,1020.31
2019-03-19T06:40:08.330Z,1020.32
2019-03-19T06:41:08.328Z,1020.36
2019-03-19T06:42:08.307Z,1020.39
2019-03-19T06:43:08.342Z,1020.36
2019-03-19T06:44:08.305Z,1020.42
2019-03-19T06:45:08.267Z,1020.39
2019-03-19T06:46:08.276Z,1020.36
2019-03-19T06:47:08.249Z,1020.33
2019-03-19T06:48:08.267Z,1020.33
2019-03-19T06:49:08.256Z,1020.43
2019-03-19T06:50:08.226Z,1020.43
2019-03-19T06:51:08.248Z,1020.42
2019-03-19T06:52:08.204Z,1020.43
2019-03-19T06:53:08.196Z,1020.44
2019-03-19T06:54:08.203Z,1020.50
2019-03-19T06:55:08.183Z,1020.45
2019-03-19T06:56:08.155Z,1020.50
2019-03-19T06:57:08.146Z,1020.49
2019-03-19T06:58:11.169Z,1020.49
2019-03-19T06:59:08.199Z,1020.45
2019-03-19T07:00:08.121Z,1020.48
2019-03-19T07:01:08.130Z,1020.47
2019-03-19T07:02:08.097Z,1020.48
2019-03-19T07:03:08.093Z,1020.47
2019-03-19T07:04:08.075Z,1020.50
2019-03-19T07:05:08.609Z,1020.49
2019-03-19T07:06:08.056Z,1020.54
2019-03-19T07:07:08.074Z,1020.51
2019-03-19T07:08:08.046Z,1020.57
2019-03-19T07:09:08.078Z,1020.52
2019-03-19T07:10:08.018Z,1020.54
2019-03-19T07:11:08.095Z,1020.50
2019-03-19T07:12:08.003Z,1020.52
2019-03-19T07:13:07.996Z,1020.64
2019-03-19T07:14:08.005Z,1020.57
2019-03-19T07:15:07.956Z,1020.63
2019-03-19T07:16:07.972Z,1020.63
2019-03-19T07:17:07.954Z,1020.65
2019-03-19T07:18:07.935Z,1020.60
2019-03-19T07:19:07.937Z,1020.70
2019-03-19T07:20:07.911Z,1020.64
2019-03-19T07:21:07.916Z,1020.68
2019-03-19T07:22:07.916Z,1020.71
2019-03-19T07:23:07.875Z,1020.60
2019-03-19T07:24:07.878Z,1020.65
2019-03-19T07:25:07.877Z,1020.70
2019-03-19T07:26:07.853Z,1020.68
2019-03-19T07:27:07.845Z,1020.71
2019-03-19T07:28:07.846Z,1020.71
2019-03-19T07:29:07.868Z,1020.73
2019-03-19T07:30:07.839Z,1020.76
2019-03-19T07:31:07.843Z,1020.76
2019-03-19T07:32:07.789Z,1020.83
2019-03-19T07:33:07.782Z,1020.80
2019-03-19T07:34:07.788Z,1020.76
2019-03-19T07:35:07.764Z,1020.77
2019-03-19T07:36:07.746Z,1020.77
2019-03-19T07:37:07.747Z,1020.77
2019-03-19T07:38:07.738Z,1020.94
2019-03-19T07:39:07.757Z,1020.91
2019-03-19T07:40:07.706Z,1020.79
2019-03-19T07:41:07.699Z,1020.77
2019-03-19T07:42:07.708Z,1021.00
2019-03-19T07:43:07.681Z,1020.96
2019-03-19T07:44:07.663Z,1020.89
2019-03-19T07:45:07.671Z,1021.01
2019-03-19T07:46:07.633Z,1020.91
2019-03-19T07:47:07.631Z,1020.94
2019-03-19T07:48:07.657Z,1020.98
2019-03-19T07:49:07.608Z,1020.94
2019-03-19T07:50:07.605Z,1021.02
2019-03-19T07:51:07.611Z,1020.91
2019-03-19T07:52:07.575Z,1020.92
2019-03-19T07:53:07.572Z,1020.99
2019-03-19T07:54:07.575Z,1020.97
2019-03-19T07:55:07.558Z,1020.98
2019-03-19T07:56:07.564Z,1021.02
2019-03-19T07:57:07.523Z,1020.99
2019-03-19T07:58:07.511Z,1021.17
2019-03-19T07:59:07.537Z,1021.16
2019-03-19T08:00:07.514Z,1021.11
2019-03-19T08:01:07.525Z,1021.02
2019-03-19T08:02:07.503Z,1021.11
2019-03-19T08:03:15.584Z,1021.12
2019-03-19T08:04:08.461Z,1021.21
2019-03-19T08:05:07.446Z,1021.07
2019-03-19T08:06:07.437Z,1021.14
2019-03-19T08:07:07.436Z,1021.18
2019-03-19T08:08:07.442Z,1021.17
2019-03-19T08:09:07.404Z,1021.15
2019-03-19T08:10:07.404Z,1021.11
2019-03-19T08:11:07.384Z,1021.10
2019-03-19T08:12:07.386Z,1021.01
2019-03-19T08:13:07.379Z,1021.05
2019-03-19T08:14:07.338Z,1021.02
2019-03-19T08:15:07.331Z,1021.00
2019-03-19T08:16:07.329Z,1021.02
2019-03-19T08:17:07.362Z,1021.01
2019-03-19T08:18:07.345Z,1021.05
2019-03-19T08:19:07.335Z,1021.08
2019-03-19T08:20:07.315Z,1021.04
2019-03-19T08:21:07.278Z,1021.12
2019-03-19T08:22:07.264Z,1021.11
2019-03-19T08:23:09.044Z,1021.23
2019-03-19T08:24:07.267Z,1021.17
2019-03-19T08:25:08.790Z,1021.12
2019-03-19T08:26:07.274Z,1021.15
2019-03-19T08:27:07.207Z,1021.17
2019-03-19T08:28:07.196Z,1021.19
2019-03-19T08:29:07.193Z,1021.21
2019-03-19T08:30:07.217Z,1021.20
2019-03-19T08:31:07.329Z,1021.20
2019-03-19T08:32:07.164Z,1021.23
2019-03-19T08:33:07.147Z,1021.28
2019-03-19T08:34:07.184Z,1021.19
2019-03-19T08:35:07.140Z,1021.23
2019-03-19T08:36:09.560Z,1021.29
2019-03-19T08:37:07.115Z,1021.26
2019-03-19T08:38:07.092Z,1021.24
2019-03-19T08:39:07.101Z,1021.36
2019-03-19T08:40:07.068Z,1021.35
2019-03-19T08:41:07.092Z,1021.39
2019-03-19T08:42:07.053Z,1021.30
2019-03-19T08:43:07.037Z,1021.42
2019-03-19T08:44:07.030Z,1021.53
2019-03-19T08:45:07.035Z,1021.43
2019-03-19T08:46:07.031Z,1021.35
2019-03-19T08:47:07.019Z,1021.42
2019-03-19T08:48:06.998Z,1021.40
2019-03-19T08:49:06.986Z,1021.41
2019-03-19T08:50:06.960Z,1021.41
2019-03-19T08:51:06.951Z,1021.43
2019-03-19T08:52:06.970Z,1021.38
2019-03-19T08:53:06.927Z,1021.48
2019-03-19T08:54:06.932Z,1021.43
2019-03-19T08:55:06.910Z,1021.47
2019-03-19T08:56:06.915Z,1021.51
2019-03-19T08:57:06.997Z,1021.57
2019-03-19T08:58:06.912Z,1021.60
2019-03-19T08:59:06.870Z,1021.56
2019-03-19T09:00:06.875Z,1021.65
2019-03-19T09:01:06.841Z,1021.58
2019-03-19T09:02:06.836Z,1021.44
2019-03-19T09:03:06.893Z,1021.57
2019-03-19T09:04:06.818Z,1021.52
2019-03-19T09:05:06.800Z,1021.55
2019-03-19T09:06:06.793Z,1021.53
2019-03-19T09:07:06.865Z,1021.49
2019-03-19T09:08:06.778Z,1021.80
2019-03-19T09:09:06.791Z,1021.72
2019-03-19T09:10:06.755Z,1021.62
2019-03-19T09:11:06.743Z,1021.59
2019-03-19T09:12:06.723Z,1021.73
2019-03-19T09:13:06.777Z,1021.57
2019-03-19T09:14:06.705Z,1021.77
2019-03-19T09:15:06.739Z,1021.65
2019-03-19T09:16:06.694Z,1021.72
2019-03-19T09:17:06.703Z,1021.66
2019-03-19T09:18:06.673Z,1021.77
2019-03-19T09:19:06.650Z,1021.72
2019-03-19T09:20:07.134Z,1021.88
2019-03-19T09:21:06.634Z,1021.83
2019-03-19T09:22:06.617Z,1021.62
2019-03-19T09:23:06.618Z,1021.87
2019-03-19T09:24:06.597Z,1021.83
2019-03-19T09:25:06.580Z,1021.77
2019-03-19T09:26:06.617Z,1021.82
2019-03-19T09:27:06.564Z,1021.85
2019-03-19T09:28:06.559Z,1021.78
2019-03-19T09:29:16.322Z,1021.88
2019-03-19T09:30:07.529Z,1021.87
2019-03-19T09:31:06.528Z,1021.96
2019-03-19T09:32:06.535Z,1021.99
2019-03-19T09:33:06.514Z,1022.00
2019-03-19T09:34:06.498Z,1021.97
2019-03-19T09:35:06.507Z,1022.02
2019-03-19T09:36:06.471Z,1022.07
2019-03-19T09:37:06.482Z,1022.02
2019-03-19T09:38:06.453Z,1022.04
2019-03-19T09:39:06.435Z,1021.86
2019-03-19T09:40:06.440Z,1021.99
2019-03-19T09:41:06.420Z,1022.11
2019-03-19T09:42:06.443Z,1022.00
2019-03-19T09:43:06.404Z,1022.06
2019-03-19T09:44:06.381Z,1022.02
2019-03-19T09:45:06.392Z,1021.97
2019-03-19T09:46:06.361Z,1021.97
2019-03-19T09:47:06.380Z,1022.07
2019-03-19T09:48:06.377Z,1021.98
2019-03-19T09:49:06.323Z,1022.01
2019-03-19T09:50:06.323Z,1021.97
2019-03-19T09:51:06.319Z,1022.09
2019-03-19T09:52:06.294Z,1022.09
2019-03-19T09:53:06.333Z,1022.10
2019-03-19T09:54:06.278Z,1022.00
2019-03-19T09:55:06.259Z,1022.03
2019-03-19T09:56:06.264Z,1021.91
2019-03-19T09:57:06.247Z,1021.96
2019-03-19T09:58:06.260Z,1022.06
2019-03-19T09:59:06.224Z,1022.20
2019-03-19T10:00:06.222Z,1022.05
2019-03-19T10:01:06.201Z,1022.10
2019-03-19T10:02:06.203Z,1022.29
2019-03-19T10:03:06.174Z,1022.12
2019-03-19T10:04:06.189Z,1022.21
2019-03-19T10:05:06.151Z,1022.28
2019-03-19T10:06:13.967Z,1022.19
2019-03-19T10:07:07.135Z,1022.25
2019-03-19T10:08:06.133Z,1022.42
2019-03-19T10:09:06.146Z,1022.39
2019-03-19T10:10:06.103Z,1022.74
2019-03-19T10:11:06.091Z,1022.35
2019-03-19T10:12:06.088Z,1022.36
2019-03-19T10:13:06.074Z,1022.38
2019-03-19T10:14:06.074Z,1022.58
2019-03-19T10:15:06.105Z,1022.47
2019-03-19T10:16:07.675Z,1022.40
2019-03-19T10:17:06.025Z,1022.37
2019-03-19T10:18:06.095Z,1022.45
2019-03-19T10:19:06.009Z,1022.36
2019-03-19T10:20:06.053Z,1022.42
2019-03-19T10:21:06.024Z,1022.56
2019-03-19T10:22:06.013Z,1022.43
2019-03-19T10:23:05.967Z,1022.39
2019-03-19T10:24:05.953Z,1022.44
2019-03-19T10:25:05.946Z,1022.43
2019-03-19T10:26:05.933Z,1022.43
2019-03-19T10:27:05.958Z,1022.34
2019-03-19T10:28:05.906Z,1022.34
2019-03-19T10:29:05.891Z,1022.39
2019-03-19T10:30:05.904Z,1022.46
2019-03-19T10:31:05.886Z,1022.52
2019-03-19T10:32:05.894Z,1022.31
2019-03-19T10:33:05.867Z,1022.37
2019-03-19T10:34:05.850Z,1022.34
2019-03-19T10:35:05.828Z,1022.29
2019-03-19T10:36:05.823Z,1022.07
2019-03-19T10:37:05.822Z,1022.37
2019-03-19T10:38:05.833Z,1022.33
2019-03-19T10:39:05.794Z,1022.40
2019-03-19T10:40:05.786Z,1022.34
2019-03-19T10:41:05.797Z,1022.44
2019-03-19T10:42:05.809Z,1022.43
2019-03-19T10:43:05.759Z,1022.40
2019-03-19T10:44:05.782Z,1022.41
2019-03-19T10:45:05.734Z,1022.43
2019-03-19T10:46:05.713Z,1022.44
2019-03-19T10:47:05.706Z,1022.50
2019-03-19T10:48:05.728Z,1022.46
2019-03-19T10:49:05.713Z,1022.53
2019-03-19T10:50:05.670Z,1022.50
2019-03-19T10:51:05.658Z,1022.49
2019-03-19T10:52:05.653Z,1022.45
2019-03-19T10:53:05.645Z,1022.57
2019-03-19T10:54:05.646Z,1022.71
2019-03-19T10:55:05.642Z,1022.61
2019-03-19T10:56:05.607Z,1022.63
2019-03-19T10:57:05.600Z,1022.66
2019-03-19T10:58:10.954Z,1022.45
2019-03-19T10:59:06.611Z,1022.55
2019-03-19T11:00:05.585Z,1022.63
2019-03-19T11:01:05.582Z,1022.57
2019-03-19T11:02:05.543Z,1022.59
2019-03-19T11:03:05.531Z,1022.75
2019-03-19T11:04:05.520Z,1022.54
2019-03-19T11:05:05.550Z,1022.52
2019-03-19T11:06:05.525Z,1022.73
2019-03-19T11:07:05.490Z,1022.50
2019-03-19T11:08:05.479Z,1022.64
2019-03-19T11:09:05.466Z,1022.72
2019-03-19T11:10:05.491Z,1022.61
2019-03-19T11:11:05.464Z,1022.68
2019-03-19T11:12:05.450Z,1022.67
2019-03-19T11:13:05.416Z,1022.69
2019-03-19T11:14:05.419Z,1022.70
2019-03-19T11:15:05.432Z,1022.81
2019-03-19T11:16:05.397Z,1022.63
2019-03-19T11:17:05.401Z,1022.72
2019-03-19T11:18:05.400Z,1022.62
2019-03-19T11:19:05.363Z,1022.71
2019-03-19T11:20:05.343Z,1022.85
2019-03-19T11:21:05.367Z,1022.90
2019-03-19T11:22:05.320Z,1022.61
2019-03-19T11:23:05.313Z,1022.62
2019-03-19T11:24:05.337Z,1022.77
2019-03-19T11:25:05.291Z,1022.63
2019-03-19T11:26:05.306Z,1022.79
2019-03-19T11:27:05.277Z,1022.84
2019-03-19T11:28:05.277Z,1022.71
2019-03-19T11:29:05.273Z,1022.79
2019-03-19T11:30:06.568Z,1023.04
2019-03-19T11:31:05.225Z,1022.81
2019-03-19T11:32:05.212Z,1022.81
2019-03-19T11:33:05.201Z,1022.77
2019-03-19T11:34:05.219Z,1022.70
2019-03-19T11:35:05.198Z,1022.71
2019-03-19T11:36:05.173Z,1022.72
2019-03-19T11:37:05.163Z,1022.77
2019-03-19T11:38:05.149Z,1022.73
2019-03-19T11:39:05.164Z,1022.76
2019-03-19T11:40:05.124Z,1022.75
2019-03-19T11:41:07.180Z,1023.07
2019-03-19T11:42:05.111Z,1022.68
2019-03-19T11:43:05.090Z,1022.78
2019-03-19T11:44:05.086Z,1022.66
2019-03-19T11:45:05.095Z,1022.75
2019-03-19T11:46:05.072Z,1022.83
2019-03-19T11:47:05.059Z,1022.67
2019-03-19T11:48:05.040Z,1022.73
2019-03-19T11:49:05.031Z,1022.74
2019-03-19T11:50:05.013Z,1022.81
2019-03-19T11:51:05.037Z,1022.86
2019-03-19T11:52:05.006Z,1022.69
2019-03-19T11:53:05.003Z,1022.84
2019-03-19T11:54:04.970Z,1022.75
2019-03-19T11:55:04.956Z,1022.85
2019-03-19T11:56:04.974Z,1022.90
2019-03-19T11:57:04.940Z,1022.85
2019-03-19T11:58:04.931Z,1023.11
2019-03-19T11:59:04.944Z,1022.94
2019-03-19T12:00:11.141Z,1023.13
2019-03-19T12:01:05.924Z,1022.98
2019-03-19T12:02:07.846Z,1022.99
2019-03-19T12:03:15.038Z,1022.98
2019-03-19T12:04:05.931Z,1023.09
2019-03-19T12:05:04.844Z,1023.19